Time;durP1;ratioP1;P1;durP2;ratioP2;P2;SDS_P1;SDS_P2;PMS_P1;PMS_P2;Temp;Humidity;BMP_temperature;BMP_pressure;BME280_temperature;BME280_humidity;BME280_pressure;Samples;Min_cycle;Max_cycle;Signal;HPM_P1;HPM_P2
2022/04/24 00:15:13;;;;;;;1.50;1.00;;;17.50;99.90;;;;;;5044470;28;20283;-92
2022/04/24 00:17:45;;;;;;;1.67;1.20;;;17.40;99.90;;;;;;5023875;28;20213;-91
2022/04/24 00:23:09;;;;;;;3.30;1.23;;;17.00;99.90;;;;;;5032220;28;20214;-92
2022/04/24 00:25:43;;;;;;;4.33;1.33;;;17.10;99.90;;;;;;5032974;28;20229;-91
2022/04/24 00:30:53;;;;;;;2.80;1.13;;;17.20;99.90;;;;;;5786154;22;20232;-91
2022/04/24 00:33:25;;;;;;;2.37;1.30;;;17.40;99.90;;;;;;5040577;28;20212;-92
2022/04/24 00:35:56;;;;;;;2.47;1.30;;;17.20;99.90;;;;;;5040218;28;20335;-92
2022/04/24 00:38:27;;;;;;;3.67;1.43;;;17.00;99.90;;;;;;5042710;28;20197;-91
2022/04/24 00:40:58;;;;;;;2.87;1.00;;;17.10;99.90;;;;;;5039450;28;20213;-93
2022/04/24 00:43:31;;;;;;;3.07;1.20;;;17.10;99.90;;;;;;5040556;28;20233;-92
2022/04/24 00:46:15;;;;;;;2.57;1.23;;;17.20;99.90;;;;;;5040979;28;20741;-92
2022/04/24 00:48:47;;;;;;;2.47;1.10;;;17.30;99.90;;;;;;5048175;28;20201;-92
2022/04/24 00:51:21;;;;;;;2.50;1.13;;;17.30;99.90;;;;;;5050949;28;20324;-92
2022/04/24 00:53:54;;;;;;;2.97;1.50;;;17.10;99.90;;;;;;5042313;28;20213;-92
2022/04/24 00:56:30;;;;;;;2.00;1.10;;;16.90;99.90;;;;;;5042897;28;20282;-92
2022/04/24 00:59:05;;;;;;;2.63;1.67;;;17.00;99.90;;;;;;5021885;28;20233;-91
2022/04/24 01:01:40;;;;;;;5.53;1.37;;;16.80;99.90;;;;;;5021556;28;20208;-92
2022/04/24 01:04:13;;;;;;;2.07;1.10;;;16.40;99.90;;;;;;5020100;28;20210;-92
2022/04/24 01:06:47;;;;;;;2.70;1.40;;;16.30;99.90;;;;;;5026231;28;20295;-92
2022/04/24 01:09:19;;;;;;;2.40;1.30;;;16.30;99.90;;;;;;5022265;28;20256;-92
2022/04/24 01:11:52;;;;;;;2.63;1.20;;;16.20;99.90;;;;;;5019541;28;20240;-91
2022/04/24 01:14:26;;;;;;;1.87;1.27;;;16.10;99.90;;;;;;5023329;28;20253;-91
2022/04/24 01:17:01;;;;;;;2.20;1.33;;;16.00;99.90;;;;;;5024887;28;20297;-90
2022/04/24 01:22:29;;;;;;;2.30;1.20;;;15.90;99.90;;;;;;5032824;28;20207;-93
2022/04/24 01:25:05;;;;;;;1.77;1.30;;;15.90;99.90;;;;;;5021125;28;20268;-90
2022/04/24 01:27:37;;;;;;;1.37;1.10;;;15.80;99.90;;;;;;5028341;28;20245;-91
2022/04/24 01:30:10;;;;;;;3.00;1.43;;;15.90;99.90;;;;;;5019812;28;20232;-91
2022/04/24 01:32:43;;;;;;;4.50;1.40;;;16.00;99.90;;;;;;5028782;28;20686;-91
2022/04/24 01:35:17;;;;;;;2.33;1.50;;;16.00;99.90;;;;;;5019808;28;20205;-91
2022/04/24 01:37:50;;;;;;;3.20;1.40;;;16.10;99.90;;;;;;5021942;28;20212;-91
2022/04/24 01:40:22;;;;;;;2.37;1.27;;;16.00;99.90;;;;;;5020763;28;20337;-91
2022/04/24 01:42:53;;;;;;;3.17;1.40;;;15.80;99.90;;;;;;5035572;28;20227;-93
2022/04/24 01:45:26;;;;;;;2.97;1.40;;;15.60;99.90;;;;;;5031671;28;20712;-92
2022/04/24 01:47:57;;;;;;;2.63;1.27;;;15.60;99.90;;;;;;5032540;28;20229;-93
2022/04/24 01:50:29;;;;;;;2.00;1.50;;;15.60;99.90;;;;;;5024088;28;20281;-92
2022/04/24 01:53:02;;;;;;;2.27;1.40;;;15.50;99.90;;;;;;5022393;28;20217;-92
2022/04/24 01:55:36;;;;;;;2.03;1.27;;;15.40;99.90;;;;;;5021691;28;20673;-92
2022/04/24 01:58:08;;;;;;;3.23;1.23;;;15.30;99.90;;;;;;5033254;28;20201;-92
2022/04/24 02:00:44;;;;;;;1.90;1.30;;;15.20;99.90;;;;;;5016117;28;20283;-92
2022/04/24 02:03:17;;;;;;;2.70;1.30;;;15.10;99.90;;;;;;5033428;28;20240;-90
2022/04/24 02:05:50;;;;;;;2.43;1.20;;;15.00;99.90;;;;;;5030933;28;20252;-91
2022/04/24 02:08:25;;;;;;;1.53;1.27;;;14.90;99.90;;;;;;5024467;28;20213;-91
2022/04/24 02:10:56;;;;;;;2.03;1.33;;;14.80;99.90;;;;;;5033858;28;20216;-92
2022/04/24 02:13:29;;;;;;;3.53;1.43;;;14.70;99.90;;;;;;5034632;28;20189;-92
2022/04/24 02:16:04;;;;;;;2.03;1.30;;;14.60;99.90;;;;;;5034563;28;20197;-91
2022/04/24 02:18:36;;;;;;;0.97;0.90;;;14.50;99.90;;;;;;5025312;28;20216;-92
2022/04/24 02:21:09;;;;;;;1.37;1.27;;;14.50;99.90;;;;;;5032285;28;20197;-91
2022/04/24 02:23:43;;;;;;;2.40;1.67;;;14.40;99.90;;;;;;5047612;28;20201;-90
2022/04/24 02:29:02;;;;;;;2.47;1.27;;;14.30;99.90;;;;;;5057309;28;20200;-91
2022/04/24 02:31:35;;;;;;;1.83;1.17;;;14.30;99.90;;;;;;5057229;28;20248;-91
2022/04/24 02:36:50;;;;;;;2.27;1.33;;;14.20;99.90;;;;;;5057206;23;20249;-91
2022/04/24 02:42:03;;;;;;;4.20;1.80;;;13.90;99.90;;;;;;5073052;23;20287;-90
2022/04/24 02:44:39;;;;;;;2.80;1.40;;;13.90;99.90;;;;;;5057532;28;20201;-90
2022/04/24 02:47:17;;;;;;;5.13;1.90;;;13.70;99.90;;;;;;5057255;28;20220;-93
2022/04/24 02:49:50;;;;;;;2.93;1.47;;;13.60;99.90;;;;;;5057001;28;20192;-92
2022/04/24 02:52:23;;;;;;;2.97;1.50;;;13.50;99.90;;;;;;5056376;28;20224;-92
2022/04/24 02:54:57;;;;;;;3.87;1.93;;;13.40;99.90;;;;;;5057010;28;20193;-91
2022/04/24 02:57:37;;;;;;;3.77;1.50;;;13.30;99.90;;;;;;5056521;28;20235;-91
2022/04/24 03:00:23;;;;;;;3.73;1.67;;;13.20;99.90;;;;;;5057126;28;20196;-91
2022/04/24 03:02:55;;;;;;;2.43;1.60;;;13.10;99.90;;;;;;5056694;28;20203;-90
2022/04/24 03:05:28;;;;;;;1.53;1.30;;;13.00;99.90;;;;;;5057349;28;20254;-90
2022/04/24 03:08:01;;;;;;;3.33;1.70;;;12.90;99.90;;;;;;5055840;28;20251;-92
2022/04/24 03:10:52;;;;;;;1.87;1.50;;;12.80;99.90;;;;;;5056353;28;20201;-92
2022/04/24 03:13:42;;;;;;;3.10;1.33;;;12.70;99.90;;;;;;5054742;28;20205;-92
2022/04/24 03:16:15;;;;;;;2.40;1.57;;;12.60;99.90;;;;;;5051242;28;20223;-91
2022/04/24 03:21:45;;;;;;;5.33;1.67;;;12.50;99.90;;;;;;5056215;28;20197;-90
2022/04/24 03:24:20;;;;;;;3.23;1.67;;;12.40;99.90;;;;;;5054191;28;20243;-91
2022/04/24 03:27:05;;;;;;;3.30;2.00;;;12.30;99.90;;;;;;5054299;28;20232;-91
2022/04/24 03:29:53;;;;;;;3.87;1.87;;;12.20;99.90;;;;;;5051369;28;20204;-90
2022/04/24 03:32:25;;;;;;;2.00;1.80;;;12.10;99.90;;;;;;5051141;28;20622;-91
2022/04/24 03:34:58;;;;;;;4.20;3.07;;;12.00;99.90;;;;;;5048386;28;20212;-90
2022/04/24 03:37:30;;;;;;;7.10;4.47;;;11.90;99.90;;;;;;5054411;28;20219;-91
2022/04/24 03:40:12;;;;;;;4.87;4.03;;;11.80;99.90;;;;;;5054130;28;20189;-89
2022/04/24 03:42:45;;;;;;;4.73;4.20;;;11.80;99.90;;;;;;5053301;28;20206;-91
2022/04/24 03:45:30;;;;;;;5.63;3.80;;;11.70;99.90;;;;;;5055456;28;20216;-90
2022/04/24 03:48:04;;;;;;;5.10;4.50;;;11.70;99.90;;;;;;5054544;28;20236;-92
2022/04/24 03:50:36;;;;;;;7.20;5.03;;;11.60;99.90;;;;;;5053617;28;20244;-91
2022/04/24 03:53:09;;;;;;;6.43;5.60;;;11.50;99.90;;;;;;5058985;28;20213;-91
2022/04/24 03:55:40;;;;;;;6.90;4.93;;;11.40;99.90;;;;;;5060326;28;20224;-93
2022/04/24 04:09:10;;;;;;;2.40;2.20;;;11.00;99.90;;;;;;5034231;28;20289;-88
2022/04/24 04:11:43;;;;;;;4.10;3.70;;;10.90;99.90;;;;;;5037159;28;20193;-89
2022/04/24 04:14:16;;;;;;;5.33;3.30;;;10.90;99.90;;;;;;5034484;28;20213;-91
2022/04/24 04:16:48;;;;;;;5.87;4.40;;;10.80;99.90;;;;;;5035837;28;20214;-92
2022/04/24 04:22:07;;;;;;;4.70;4.30;;;10.70;99.90;;;;;;5039893;28;20244;-90
2022/04/24 04:27:33;;;;;;;2.60;2.20;;;10.60;99.90;;;;;;5018322;28;20228;-89
2022/04/24 04:30:08;;;;;;;3.17;1.97;;;10.50;99.90;;;;;;5018136;28;20220;-90
2022/04/24 04:32:42;;;;;;;4.23;2.47;;;10.40;99.90;;;;;;5018515;28;20217;-91
2022/04/24 04:35:22;;;;;;;3.07;2.70;;;10.40;99.90;;;;;;5019400;28;20214;-90
2022/04/24 04:38:00;;;;;;;3.00;2.23;;;10.30;99.90;;;;;;5016130;28;20217;-92
2022/04/24 04:40:32;;;;;;;2.40;2.20;;;10.20;99.90;;;;;;5015522;28;20213;-91
2022/04/24 04:43:13;;;;;;;6.50;4.87;;;10.20;99.90;;;;;;5013656;28;20209;-91
2022/04/24 04:45:45;;;;;;;5.40;3.90;;;10.20;99.90;;;;;;5015966;28;20202;-92
2022/04/24 04:51:01;;;;;;;5.37;3.60;;;10.10;99.90;;;;;;5405090;22;20295;-91
2022/04/24 04:53:35;;;;;;;5.57;3.23;;;10.10;99.90;;;;;;5049255;28;20227;-90
2022/04/24 04:56:07;;;;;;;5.10;2.80;;;10.00;99.90;;;;;;5049228;28;20284;-90
2022/04/24 04:58:43;;;;;;;4.40;3.07;;;9.90;99.90;;;;;;5041543;28;20240;-91
2022/04/24 05:01:14;;;;;;;4.00;2.60;;;9.90;99.90;;;;;;5041547;28;20657;-88
2022/04/24 05:03:47;;;;;;;3.53;2.33;;;9.80;99.90;;;;;;5042845;28;20243;-90
2022/04/24 05:06:19;;;;;;;2.80;2.10;;;9.80;99.90;;;;;;5041964;28;20235;-91
2022/04/24 05:08:50;;;;;;;2.43;1.87;;;9.80;99.90;;;;;;5041227;28;20229;-92
2022/04/24 05:11:21;;;;;;;3.93;1.60;;;9.70;99.90;;;;;;5040166;28;20212;-92
2022/04/24 05:13:55;;;;;;;2.23;1.70;;;9.70;99.90;;;;;;5040061;28;20209;-92
2022/04/24 05:16:28;;;;;;;3.37;1.93;;;9.60;99.90;;;;;;5044155;28;20205;-92
2022/04/24 05:19:00;;;;;;;2.50;1.80;;;9.50;99.90;;;;;;5039712;28;20243;-91
2022/04/24 05:21:31;;;;;;;3.33;1.90;;;9.50;99.90;;;;;;5040037;28;20279;-92
2022/04/24 05:24:06;;;;;;;2.37;1.80;;;9.50;99.90;;;;;;5044378;28;20205;-92
2022/04/24 05:26:38;;;;;;;4.27;2.07;;;9.40;99.90;;;;;;5039874;28;20201;-90
2022/04/24 05:29:12;;;;;;;4.90;2.23;;;9.40;99.90;;;;;;5038782;28;20781;-91
2022/04/24 05:31:44;;;;;;;2.93;2.03;;;9.40;99.90;;;;;;5038272;28;20243;-91
2022/04/24 05:34:17;;;;;;;5.93;2.10;;;9.30;99.90;;;;;;5043081;28;20201;-90
2022/04/24 05:36:49;;;;;;;3.57;2.23;;;9.30;99.90;;;;;;5044585;28;20227;-91
2022/04/24 05:39:21;;;;;;;3.80;2.10;;;9.20;99.90;;;;;;5038659;28;20213;-91
2022/04/24 05:41:53;;;;;;;3.20;2.00;;;9.20;99.90;;;;;;5038646;28;20662;-90
2022/04/24 05:44:27;;;;;;;3.90;2.20;;;9.10;99.90;;;;;;5038758;28;20258;-88
2022/04/24 05:47:04;;;;;;;4.10;2.70;;;9.10;99.90;;;;;;5038293;28;20270;-89
2022/04/24 05:49:35;;;;;;;3.67;2.30;;;9.20;99.90;;;;;;5036917;28;20312;-89
2022/04/24 05:52:07;;;;;;;2.77;2.13;;;9.10;99.90;;;;;;5037423;28;20213;-91
2022/04/24 05:54:38;;;;;;;5.33;2.37;;;9.10;99.90;;;;;;5037663;28;20657;-91
2022/04/24 05:57:10;;;;;;;3.87;2.30;;;9.00;99.90;;;;;;5038334;28;20276;-91
2022/04/24 05:59:48;;;;;;;3.70;2.40;;;8.90;99.90;;;;;;5038476;28;20232;-91
2022/04/24 06:02:19;;;;;;;5.43;2.80;;;8.90;99.90;;;;;;5038171;28;20200;-91
2022/04/24 06:04:52;;;;;;;4.67;2.53;;;8.90;99.90;;;;;;5018669;28;20206;-92
2022/04/24 06:07:26;;;;;;;4.10;2.60;;;8.80;99.90;;;;;;5001501;28;20202;-92
2022/04/24 06:09:57;;;;;;;4.70;2.40;;;8.80;99.90;;;;;;5018831;28;20217;-91
2022/04/24 06:12:32;;;;;;;2.57;2.37;;;8.70;99.90;;;;;;5017727;28;20224;-91
2022/04/24 06:15:15;;;;;;;5.70;3.20;;;8.70;99.90;;;;;;5018725;28;20225;-92
2022/04/24 06:17:47;;;;;;;4.70;2.70;;;8.60;99.90;;;;;;5022734;28;20258;-91
2022/04/24 06:20:20;;;;;;;4.77;3.60;;;8.60;99.90;;;;;;5037199;28;20205;-90
2022/04/24 06:22:53;;;;;;;5.23;3.40;;;8.60;99.90;;;;;;5035814;28;20215;-91
2022/04/24 06:25:27;;;;;;;4.90;3.27;;;8.60;99.90;;;;;;5028140;28;20642;-92
2022/04/24 06:27:59;;;;;;;3.80;3.33;;;8.50;99.90;;;;;;5019025;28;20220;-92
2022/04/24 06:30:35;;;;;;;4.83;2.67;;;8.40;99.90;;;;;;5019611;28;20233;-90
2022/04/24 06:33:09;;;;;;;3.60;2.50;;;8.40;99.90;;;;;;5019158;28;20212;-91
2022/04/24 06:35:42;;;;;;;3.80;2.63;;;8.40;99.90;;;;;;5018887;28;20721;-91
2022/04/24 06:38:13;;;;;;;5.17;2.57;;;8.30;99.90;;;;;;5017726;28;20229;-90
2022/04/24 06:40:48;;;;;;;3.90;2.70;;;8.30;99.90;;;;;;5018139;28;20367;-90
2022/04/24 06:43:19;;;;;;;3.67;2.40;;;8.30;99.90;;;;;;5018723;28;20272;-89
2022/04/24 06:45:53;;;;;;;4.30;2.73;;;8.30;99.90;;;;;;5036512;28;20208;-90
2022/04/24 06:48:25;;;;;;;5.10;2.60;;;8.30;99.90;;;;;;5036355;28;20301;-92
2022/04/24 06:51:00;;;;;;;3.87;2.43;;;8.30;99.90;;;;;;5036600;28;20569;-89
2022/04/24 06:53:34;;;;;;;4.13;2.03;;;8.20;99.90;;;;;;5037004;28;20618;-90
2022/04/24 06:56:06;;;;;;;3.70;2.40;;;8.20;99.90;;;;;;5040690;28;20265;-90
2022/04/24 06:58:38;;;;;;;4.70;2.53;;;8.20;99.90;;;;;;5038929;28;20233;-90
2022/04/24 07:01:19;;;;;;;4.60;2.53;;;8.20;99.90;;;;;;5038246;28;20217;-90
2022/04/24 07:03:51;;;;;;;3.40;2.40;;;8.10;99.90;;;;;;5042247;28;20208;-91
2022/04/24 07:06:26;;;;;;;2.30;1.93;;;8.10;99.90;;;;;;5039304;28;20301;-91
2022/04/24 07:08:57;;;;;;;6.20;2.33;;;8.00;99.90;;;;;;5036936;28;20617;-91
2022/04/24 07:11:28;;;;;;;4.73;2.30;;;8.00;99.90;;;;;;5037862;28;20205;-90
2022/04/24 07:13:59;;;;;;;3.97;2.90;;;8.00;99.90;;;;;;5037846;28;20657;-91
2022/04/24 07:16:34;;;;;;;3.97;2.10;;;7.90;99.90;;;;;;5037282;28;20292;-91
2022/04/24 07:19:06;;;;;;;2.47;2.07;;;7.90;99.90;;;;;;5036285;28;20240;-91
2022/04/24 07:21:37;;;;;;;5.37;2.30;;;7.90;99.90;;;;;;5036092;28;20212;-91
2022/04/24 07:24:09;;;;;;;3.27;2.33;;;7.90;99.90;;;;;;5036086;28;20236;-90
2022/04/24 07:26:41;;;;;;;3.37;2.47;;;7.80;99.90;;;;;;5038709;28;20724;-90
2022/04/24 07:29:12;;;;;;;4.53;2.40;;;7.80;99.90;;;;;;5044923;28;20296;-90
2022/04/24 07:31:46;;;;;;;3.77;2.20;;;7.80;99.90;;;;;;5040935;28;20216;-91
2022/04/24 07:34:18;;;;;;;2.93;2.23;;;7.80;99.90;;;;;;5040608;28;20207;-91
2022/04/24 07:36:50;;;;;;;4.23;2.40;;;7.80;99.90;;;;;;5040572;28;20296;-91
2022/04/24 07:39:21;;;;;;;3.03;2.10;;;7.80;99.90;;;;;;5038765;28;20231;-90
2022/04/24 07:41:53;;;;;;;2.83;1.97;;;7.70;99.90;;;;;;5040907;28;20212;-91
2022/04/24 07:44:26;;;;;;;2.90;2.10;;;7.70;99.90;;;;;;5041485;28;20223;-91
2022/04/24 07:47:00;;;;;;;3.83;2.30;;;7.70;99.90;;;;;;5039131;28;20262;-92
2022/04/24 07:49:31;;;;;;;3.93;2.40;;;7.60;99.90;;;;;;5046314;28;20205;-90
2022/04/24 07:52:03;;;;;;;4.07;2.10;;;7.60;99.90;;;;;;5043666;28;20540;-90
2022/04/24 07:54:34;;;;;;;4.50;2.37;;;7.60;99.90;;;;;;5045811;28;20555;-90
2022/04/24 07:57:07;;;;;;;4.87;2.50;;;7.60;99.90;;;;;;5040582;28;20207;-91
2022/04/24 07:59:38;;;;;;;2.53;2.33;;;7.60;99.90;;;;;;5040177;28;20244;-89
2022/04/24 08:02:12;;;;;;;2.93;2.10;;;7.60;99.90;;;;;;5039496;28;20211;-90
2022/04/24 08:04:47;;;;;;;3.27;2.23;;;7.50;99.90;;;;;;5020161;28;20296;-90
2022/04/24 08:07:22;;;;;;;3.83;2.30;;;7.50;99.90;;;;;;5019631;28;20208;-89
2022/04/24 08:09:54;;;;;;;4.00;2.43;;;7.50;99.90;;;;;;5023750;28;20205;-90
2022/04/24 08:12:25;;;;;;;3.57;2.17;;;7.40;99.90;;;;;;5024143;28;20209;-90
2022/04/24 08:14:56;;;;;;;4.33;2.13;;;7.30;99.90;;;;;;5019363;28;20216;-91
2022/04/24 08:17:31;;;;;;;3.20;2.33;;;7.30;99.90;;;;;;5019711;28;20216;-91
2022/04/24 08:20:02;;;;;;;3.10;2.00;;;7.20;99.90;;;;;;5019547;28;20248;-91
2022/04/24 08:22:39;;;;;;;4.30;2.43;;;7.20;99.90;;;;;;5056768;23;20273;-92
2022/04/24 08:25:12;;;;;;;4.77;2.37;;;7.20;99.90;;;;;;5045857;28;20205;-91
2022/04/24 08:27:49;;;;;;;4.30;2.53;;;7.10;99.90;;;;;;5042405;28;20219;-90
2022/04/24 08:30:23;;;;;;;3.80;2.70;;;7.10;99.90;;;;;;5046118;28;20195;-91
2022/04/24 08:32:58;;;;;;;3.80;2.40;;;7.10;99.90;;;;;;5059356;28;20193;-91
2022/04/24 08:35:30;;;;;;;4.77;2.37;;;7.10;99.90;;;;;;5058596;28;20227;-89
2022/04/24 08:38:01;;;;;;;3.77;2.63;;;7.10;99.90;;;;;;5056336;28;20204;-90
2022/04/24 08:40:33;;;;;;;3.60;1.97;;;7.00;99.90;;;;;;5048024;28;20233;-90
2022/04/24 08:43:04;;;;;;;3.80;2.40;;;7.00;99.90;;;;;;5042466;28;20211;-91
2022/04/24 08:45:36;;;;;;;4.43;2.03;;;7.00;99.90;;;;;;5040805;28;20217;-91
2022/04/24 08:48:11;;;;;;;5.03;2.50;;;7.00;99.90;;;;;;5039440;28;20254;-91
2022/04/24 08:53:32;;;;;;;7.53;2.30;;;6.90;99.90;;;;;;5039514;28;20632;-90
2022/04/24 08:56:03;;;;;;;5.23;2.50;;;6.90;99.90;;;;;;5040948;28;20779;-90
2022/04/24 08:58:35;;;;;;;4.27;2.30;;;6.90;99.90;;;;;;5039808;28;20209;-91
2022/04/24 09:01:06;;;;;;;3.77;2.40;;;6.80;99.90;;;;;;5041933;28;20256;-90
2022/04/24 09:03:39;;;;;;;2.73;2.27;;;6.70;99.90;;;;;;5032551;28;20221;-90
2022/04/24 09:06:22;;;;;;;3.10;2.50;;;6.70;99.90;;;;;;5021917;28;20201;-90
2022/04/24 09:08:54;;;;;;;4.37;2.20;;;6.70;99.90;;;;;;5020041;28;20268;-88
2022/04/24 09:11:28;;;;;;;4.73;2.27;;;6.60;99.90;;;;;;5020771;28;20220;-90
2022/04/24 09:14:18;;;;;;;3.47;2.30;;;6.60;99.90;;;;;;5022549;28;20260;-91
2022/04/24 09:16:50;;;;;;;4.00;2.37;;;6.60;99.90;;;;;;5019310;28;20263;-91
2022/04/24 09:19:27;;;;;;;2.40;2.20;;;6.50;99.90;;;;;;5020333;28;20288;-91
2022/04/24 09:22:06;;;;;;;3.27;2.00;;;6.50;99.90;;;;;;5023745;28;20244;-91
2022/04/24 09:24:49;;;;;;;3.03;2.23;;;6.50;99.90;;;;;;5020099;28;20222;-91
2022/04/24 09:27:27;;;;;;;3.33;2.20;;;6.50;99.90;;;;;;5019299;28;20279;-90
2022/04/24 09:30:00;;;;;;;3.70;2.40;;;6.50;99.90;;;;;;5020560;28;20301;-90
2022/04/24 09:32:33;;;;;;;3.87;2.13;;;6.50;99.90;;;;;;5021165;28;20273;-90
2022/04/24 09:35:10;;;;;;;4.57;2.03;;;6.40;99.90;;;;;;5042327;28;20676;-91
2022/04/24 09:37:43;;;;;;;2.53;2.17;;;6.40;99.90;;;;;;5052159;28;20220;-90
2022/04/24 09:40:15;;;;;;;2.63;1.83;;;6.30;99.90;;;;;;5042961;28;20226;-90
2022/04/24 09:42:55;;;;;;;3.13;2.07;;;6.30;99.90;;;;;;5044535;28;20208;-89
2022/04/24 09:45:27;;;;;;;6.80;2.03;;;6.30;99.90;;;;;;5057431;28;20197;-89
2022/04/24 09:48:19;;;;;;;2.50;2.23;;;6.30;99.90;;;;;;5056849;28;20201;-90
2022/04/24 09:50:54;;;;;;;4.90;2.07;;;6.30;99.90;;;;;;5053135;28;20257;-88
2022/04/24 09:53:25;;;;;;;3.40;1.93;;;6.30;99.90;;;;;;5044254;28;20607;-91
2022/04/24 09:55:56;;;;;;;2.53;2.03;;;6.30;99.90;;;;;;5043370;28;20585;-91
2022/04/24 09:58:27;;;;;;;3.63;2.30;;;6.20;99.90;;;;;;5040688;28;20232;-91
2022/04/24 10:00:59;;;;;;;3.97;2.63;;;6.10;99.90;;;;;;5036338;28;20263;-90
2022/04/24 10:03:31;;;;;;;2.83;2.10;;;6.10;99.90;;;;;;5039925;28;20208;-90
2022/04/24 10:06:07;;;;;;;4.87;2.30;;;6.20;99.90;;;;;;5040060;28;20210;-90
2022/04/24 10:08:40;;;;;;;3.90;2.00;;;6.20;99.90;;;;;;5039550;28;20243;-91
2022/04/24 10:11:15;;;;;;;2.87;2.03;;;6.10;99.90;;;;;;5039444;28;20303;-90
2022/04/24 10:13:49;;;;;;;2.30;1.73;;;6.10;99.90;;;;;;5040205;28;20212;-91
2022/04/24 10:16:43;;;;;;;3.20;2.03;;;6.00;99.90;;;;;;5040153;28;20296;-91
2022/04/24 10:19:26;;;;;;;3.10;2.20;;;5.90;99.90;;;;;;5040088;28;20211;-90
2022/04/24 10:22:06;;;;;;;2.03;1.73;;;5.90;99.90;;;;;;5048585;28;20335;-91
2022/04/24 10:24:42;;;;;;;4.23;2.03;;;5.90;99.90;;;;;;5056476;28;20213;-90
2022/04/24 10:27:14;;;;;;;4.40;2.20;;;5.90;99.90;;;;;;5050107;28;20221;-89
2022/04/24 10:29:52;;;;;;;2.90;1.90;;;5.90;99.90;;;;;;5046001;28;20673;-90
2022/04/24 10:32:30;;;;;;;2.93;1.80;;;5.90;99.90;;;;;;5042992;28;20583;-90
2022/04/24 10:35:03;;;;;;;2.70;1.80;;;5.90;99.90;;;;;;5042368;28;20200;-89
2022/04/24 10:37:37;;;;;;;3.50;1.90;;;5.90;99.90;;;;;;5039045;28;20245;-89
2022/04/24 10:40:14;;;;;;;6.20;2.50;;;5.90;99.90;;;;;;5045383;28;20201;-90
2022/04/24 10:42:46;;;;;;;3.50;1.80;;;6.00;99.90;;;;;;5044281;28;20648;-91
2022/04/24 10:45:20;;;;;;;3.17;1.83;;;6.00;99.90;;;;;;5042808;28;20209;-90
2022/04/24 10:47:58;;;;;;;2.80;1.97;;;6.00;99.90;;;;;;5053136;28;20212;-89
2022/04/24 10:50:29;;;;;;;2.87;2.20;;;6.00;99.90;;;;;;5036187;28;20231;-89
2022/04/24 10:53:12;;;;;;;2.53;1.83;;;6.00;99.90;;;;;;5026389;28;20595;-91
2022/04/24 10:55:44;;;;;;;2.57;1.77;;;6.00;99.90;;;;;;5029379;28;20246;-89
2022/04/24 10:58:28;;;;;;;3.97;2.20;;;6.00;99.90;;;;;;5020595;28;20202;-89
2022/04/24 11:01:10;;;;;;;2.87;1.57;;;6.00;99.90;;;;;;5019120;28;20230;-89
2022/04/24 11:03:43;;;;;;;2.87;1.87;;;5.90;99.90;;;;;;5028882;28;20217;-89
2022/04/24 11:06:23;;;;;;;4.00;1.83;;;5.90;99.90;;;;;;5038064;28;20213;-89
2022/04/24 11:08:56;;;;;;;4.43;2.07;;;6.00;99.90;;;;;;5036550;28;20215;-88
2022/04/24 11:11:29;;;;;;;2.30;2.10;;;5.90;99.90;;;;;;5037803;28;20205;-89
2022/04/24 11:14:02;;;;;;;3.30;2.07;;;5.80;99.90;;;;;;5037500;28;20653;-89
2022/04/24 11:16:34;;;;;;;2.77;1.60;;;5.70;99.90;;;;;;5037610;28;20217;-89
2022/04/24 11:19:05;;;;;;;2.67;1.90;;;5.70;99.90;;;;;;5036753;28;20292;-89
2022/04/24 11:21:42;;;;;;;3.17;1.60;;;5.70;99.90;;;;;;5037245;28;20267;-89
2022/04/24 11:24:20;;;;;;;2.43;1.73;;;5.70;99.90;;;;;;5037910;28;20232;-90
2022/04/24 11:26:51;;;;;;;2.70;2.20;;;5.70;99.90;;;;;;5037672;28;20236;-90
2022/04/24 11:29:27;;;;;;;4.80;1.97;;;5.70;99.90;;;;;;5037884;28;20296;-90
2022/04/24 11:32:00;;;;;;;4.43;2.00;;;5.60;99.90;;;;;;5041125;28;20208;-90
2022/04/24 11:34:32;;;;;;;4.80;2.03;;;5.50;99.90;;;;;;5038967;28;20544;-90
2022/04/24 11:37:07;;;;;;;2.77;2.10;;;5.50;99.90;;;;;;5039436;28;20212;-90
2022/04/24 11:39:43;;;;;;;2.90;2.60;;;5.40;99.90;;;;;;5040063;28;20227;-89
2022/04/24 11:42:14;;;;;;;5.10;2.60;;;5.40;99.90;;;;;;5043909;28;20713;-89
2022/04/24 11:50:22;;;;;;;2.23;1.90;;;5.40;99.90;;;;;;5039827;28;20216;-90
2022/04/24 11:53:15;;;;;;;3.83;2.03;;;5.40;99.90;;;;;;5039664;28;20630;-89
2022/04/24 11:56:06;;;;;;;3.80;2.23;;;5.40;99.90;;;;;;5038971;28;20205;-89
2022/04/24 11:58:38;;;;;;;4.77;1.83;;;5.40;99.90;;;;;;5038259;28;20268;-88
2022/04/24 12:01:13;;;;;;;2.93;1.93;;;5.40;99.90;;;;;;5039475;28;20702;-89
2022/04/24 12:03:46;;;;;;;2.57;1.70;;;5.40;99.90;;;;;;5038629;28;20201;-90
2022/04/24 12:06:18;;;;;;;3.97;2.00;;;5.40;99.90;;;;;;5032267;28;20260;-87
2022/04/24 12:08:52;;;;;;;3.97;2.10;;;5.40;99.90;;;;;;5021587;28;20643;-89
2022/04/24 12:11:30;;;;;;;4.60;2.27;;;5.30;99.90;;;;;;5022262;28;20213;-89
2022/04/24 12:14:06;;;;;;;2.73;2.00;;;5.10;99.90;;;;;;5024546;28;20244;-90
2022/04/24 12:16:37;;;;;;;3.33;2.10;;;5.00;99.90;;;;;;5041380;28;20208;-89
2022/04/24 12:19:12;;;;;;;2.00;1.77;;;5.00;99.90;;;;;;5043575;28;20824;-88
2022/04/24 12:21:50;;;;;;;5.20;2.37;;;5.00;99.90;;;;;;5043221;28;20264;-89
2022/04/24 12:24:23;;;;;;;3.77;1.97;;;5.00;99.90;;;;;;5044796;28;20205;-90
2022/04/24 12:26:57;;;;;;;5.73;1.90;;;5.10;99.90;;;;;;5041681;28;20236;-90
2022/04/24 12:29:28;;;;;;;3.47;1.93;;;5.10;99.90;;;;;;5044383;28;20236;-89
2022/04/24 12:32:12;;;;;;;3.97;2.00;;;5.10;99.90;;;;;;5041220;28;20221;-91
2022/04/24 12:34:44;;;;;;;1.90;1.60;;;5.10;99.90;;;;;;5042011;28;20262;-90
2022/04/24 12:37:16;;;;;;;2.10;1.60;;;5.10;99.90;;;;;;5042301;28;20209;-89
2022/04/24 12:39:54;;;;;;;2.90;1.63;;;5.00;99.90;;;;;;5040492;28;20213;-89
2022/04/24 12:42:28;;;;;;;2.07;1.87;;;5.00;99.90;;;;;;5040521;28;20225;-88
2022/04/24 12:44:59;;;;;;;1.80;1.70;;;4.90;99.90;;;;;;5040020;28;20205;-89
2022/04/24 12:47:30;;;;;;;2.57;1.87;;;4.90;99.90;;;;;;5038485;28;20266;-89
2022/04/24 12:50:07;;;;;;;1.83;1.60;;;5.00;99.90;;;;;;5039175;28;20201;-90
2022/04/24 12:52:38;;;;;;;4.80;2.00;;;5.00;99.90;;;;;;5039171;28;20274;-90
2022/04/24 12:55:10;;;;;;;3.23;1.97;;;5.00;99.90;;;;;;5039084;28;20209;-90
2022/04/24 12:57:43;;;;;;;2.57;1.73;;;5.00;99.90;;;;;;5040886;28;20214;-91
2022/04/24 13:00:16;;;;;;;3.30;2.00;;;4.80;99.90;;;;;;5052082;28;20296;-90
2022/04/24 13:02:47;;;;;;;2.43;1.90;;;4.80;99.90;;;;;;5056716;28;20232;-90
2022/04/24 13:05:19;;;;;;;3.43;2.00;;;4.80;99.90;;;;;;5054795;28;20263;-91
2022/04/24 13:07:52;;;;;;;1.60;1.50;;;4.90;99.90;;;;;;5049074;28;20216;-90
2022/04/24 13:10:24;;;;;;;2.67;1.70;;;4.80;99.90;;;;;;5040670;28;20223;-90
2022/04/24 13:13:01;;;;;;;4.17;1.90;;;4.80;99.90;;;;;;5042236;28;20236;-91
2022/04/24 13:15:34;;;;;;;2.43;1.93;;;4.80;99.90;;;;;;5040355;28;20231;-90
2022/04/24 13:18:08;;;;;;;4.07;2.00;;;4.80;99.90;;;;;;5045270;28;20285;-89
2022/04/24 13:20:41;;;;;;;3.83;1.90;;;4.80;99.90;;;;;;5039166;28;20209;-88
2022/04/24 13:23:17;;;;;;;2.03;1.83;;;4.80;99.90;;;;;;5040370;28;20325;-90
2022/04/24 13:25:50;;;;;;;2.63;2.00;;;4.90;99.90;;;;;;5040438;28;20710;-90
2022/04/24 13:28:36;;;;;;;2.60;1.90;;;4.80;99.90;;;;;;5045696;28;20213;-90
2022/04/24 13:31:08;;;;;;;2.20;1.70;;;4.80;99.90;;;;;;5038464;28;20235;-90
2022/04/24 13:33:39;;;;;;;2.13;1.90;;;4.90;99.90;;;;;;5038283;28;20236;-90
2022/04/24 13:36:16;;;;;;;3.30;1.90;;;4.90;99.90;;;;;;5037732;28;20205;-90
2022/04/24 13:38:51;;;;;;;4.73;1.90;;;5.00;99.90;;;;;;5037154;28;20212;-90
2022/04/24 13:41:30;;;;;;;2.47;1.53;;;5.00;99.90;;;;;;5038803;28;20205;-89
2022/04/24 13:44:03;;;;;;;2.63;1.67;;;5.00;99.90;;;;;;5039022;28;20716;-89
2022/04/24 13:46:35;;;;;;;2.23;1.90;;;5.10;99.90;;;;;;5036726;28;20205;-89
2022/04/24 13:49:06;;;;;;;3.70;1.73;;;5.10;99.90;;;;;;5038167;28;20213;-90
2022/04/24 13:51:38;;;;;;;2.37;1.60;;;5.20;99.90;;;;;;5037612;28;20245;-90
2022/04/24 13:54:12;;;;;;;1.63;1.53;;;5.20;99.90;;;;;;5038647;28;20224;-91
2022/04/24 13:56:43;;;;;;;2.40;1.60;;;5.30;99.90;;;;;;5038812;28;20208;-89
2022/04/24 13:59:17;;;;;;;2.33;1.80;;;5.30;99.90;;;;;;5038015;28;20560;-91
2022/04/24 14:01:48;;;;;;;2.57;1.97;;;5.30;99.90;;;;;;5037439;28;20208;-90
2022/04/24 14:04:20;;;;;;;3.50;1.93;;;5.40;99.90;;;;;;5022862;28;20245;-90
2022/04/24 14:06:52;;;;;;;3.20;1.77;;;5.40;99.90;;;;;;5024077;28;20252;-90
2022/04/24 14:09:24;;;;;;;2.77;1.90;;;5.40;99.90;;;;;;5018034;28;20385;-90
2022/04/24 14:11:57;;;;;;;4.60;1.80;;;5.50;99.90;;;;;;5011612;28;20655;-90
2022/04/24 14:14:33;;;;;;;2.83;1.70;;;5.60;99.90;;;;;;5018030;28;20206;-89
2022/04/24 14:17:05;;;;;;;3.00;1.80;;;5.60;99.90;;;;;;5017930;28;20549;-90
2022/04/24 14:19:37;;;;;;;3.73;2.13;;;5.70;99.90;;;;;;5017158;28;20221;-89
2022/04/24 14:22:08;;;;;;;3.93;2.27;;;5.70;99.90;;;;;;5017958;28;20213;-90
2022/04/24 14:24:40;;;;;;;4.77;1.90;;;5.80;99.90;;;;;;5019795;28;20217;-90
2022/04/24 14:27:17;;;;;;;2.93;2.10;;;5.90;99.90;;;;;;5016591;28;20210;-90
2022/04/24 14:29:50;;;;;;;3.90;1.93;;;6.00;99.90;;;;;;5018318;28;20233;-89